Time;durP1;ratioP1;P1;durP2;ratioP2;P2;SDS_P1;SDS_P2;PMS_P1;PMS_P2;Temp;Humidity;BMP_temperature;BMP_pressure;BME280_temperature;BME280_humidity;BME280_pressure;Samples;Min_cycle;Max_cycle;Signal;HPM_P1;HPM_P2
2024/01/09 00:02:16;;;;;;;14.10;12.83;;;-4.80;99.90;;;;;;5096715;28;20638;-64
2024/01/09 00:04:42;;;;;;;14.97;13.57;;;-4.80;99.90;;;;;;5096296;28;20650;-63
2024/01/09 00:07:07;;;;;;;15.50;14.10;;;-4.80;99.90;;;;;;5096945;28;20205;-63
2024/01/09 00:09:34;;;;;;;19.77;14.70;;;-4.80;99.90;;;;;;5096990;28;20646;-63
2024/01/09 00:12:00;;;;;;;15.00;13.73;;;-4.80;99.90;;;;;;5078347;28;20220;-63
2024/01/09 00:14:26;;;;;;;15.93;14.43;;;-4.80;99.90;;;;;;5096291;28;20298;-63
2024/01/09 00:16:51;;;;;;;13.97;12.77;;;-4.80;99.90;;;;;;5096379;28;20674;-64
2024/01/09 00:19:17;;;;;;;14.27;13.13;;;-4.90;99.90;;;;;;5096690;28;20177;-64
2024/01/09 00:21:46;;;;;;;15.50;14.10;;;-4.90;99.90;;;;;;5096926;28;20184;-64
2024/01/09 00:24:12;;;;;;;15.23;13.63;;;-4.80;99.90;;;;;;5096537;28;20184;-63
2024/01/09 00:26:45;;;;;;;14.10;12.90;;;-4.80;99.90;;;;;;5096296;28;20196;-63
2024/01/09 00:29:10;;;;;;;14.63;13.30;;;-4.80;99.90;;;;;;5096548;28;20192;-64
2024/01/09 00:31:36;;;;;;;14.50;13.30;;;-4.80;99.90;;;;;;5095335;28;20264;-64
2024/01/09 00:34:02;;;;;;;15.67;14.17;;;-4.90;99.90;;;;;;5095922;28;20681;-64
2024/01/09 00:36:28;;;;;;;15.10;13.73;;;-5.00;99.90;;;;;;5096399;28;20205;-63
2024/01/09 00:38:54;;;;;;;17.17;14.07;;;-4.90;99.90;;;;;;5096517;28;20200;-63
2024/01/09 00:41:19;;;;;;;14.83;13.43;;;-4.90;99.90;;;;;;5095920;28;20545;-64
2024/01/09 00:43:46;;;;;;;16.50;14.87;;;-4.90;99.90;;;;;;5096166;28;20192;-62
2024/01/09 00:46:11;;;;;;;15.30;14.00;;;-4.90;99.90;;;;;;5095644;28;20185;-64
2024/01/09 00:48:37;;;;;;;15.53;14.10;;;-4.90;99.90;;;;;;5096082;28;20386;-64
2024/01/09 00:51:04;;;;;;;14.90;13.53;;;-5.00;99.90;;;;;;5095930;28;20196;-63
2024/01/09 00:53:29;;;;;;;15.13;13.63;;;-5.00;99.90;;;;;;5095867;28;20188;-64
2024/01/09 00:55:56;;;;;;;15.27;13.77;;;-4.90;99.90;;;;;;5096265;28;20213;-64
2024/01/09 00:58:22;;;;;;;14.90;13.30;;;-5.00;99.90;;;;;;5095639;28;20278;-63
2024/01/09 01:00:47;;;;;;;15.07;13.77;;;-5.00;99.90;;;;;;5095473;28;20190;-63
2024/01/09 01:03:13;;;;;;;16.17;14.67;;;-5.00;99.90;;;;;;5096285;28;20644;-63
2024/01/09 01:05:39;;;;;;;16.57;14.67;;;-5.00;99.90;;;;;;5095756;28;20221;-63
2024/01/09 01:08:05;;;;;;;14.90;13.60;;;-5.00;99.90;;;;;;5095708;28;20216;-64
2024/01/09 01:10:31;;;;;;;15.77;14.37;;;-5.00;99.90;;;;;;5093824;28;20242;-63
2024/01/09 01:12:56;;;;;;;15.93;14.53;;;-5.00;99.90;;;;;;5095527;28;20553;-63
2024/01/09 01:15:23;;;;;;;15.10;13.67;;;-5.00;99.90;;;;;;5095558;28;20236;-63
2024/01/09 01:17:49;;;;;;;15.70;14.17;;;-5.00;99.90;;;;;;5095396;28;20245;-64
2024/01/09 01:20:15;;;;;;;15.47;14.10;;;-5.10;99.90;;;;;;5095546;28;20644;-63
2024/01/09 01:22:41;;;;;;;15.20;13.80;;;-5.10;99.90;;;;;;5095690;28;20573;-63
2024/01/09 01:25:08;;;;;;;15.80;14.40;;;-5.10;99.90;;;;;;5095325;28;20185;-64
2024/01/09 01:27:34;;;;;;;14.87;13.70;;;-5.10;99.90;;;;;;5094932;28;20205;-64
2024/01/09 01:30:00;;;;;;;15.97;14.50;;;-5.00;99.90;;;;;;5094868;28;20187;-63
2024/01/09 01:32:25;;;;;;;14.93;13.53;;;-5.00;99.90;;;;;;5095439;28;20657;-63
2024/01/09 01:34:51;;;;;;;15.83;14.30;;;-5.10;99.90;;;;;;5095485;28;20628;-64
2024/01/09 01:37:17;;;;;;;15.63;14.27;;;-5.10;99.90;;;;;;5095023;28;20237;-63
2024/01/09 01:39:42;;;;;;;16.00;14.47;;;-5.10;99.90;;;;;;5095346;28;20205;-64
2024/01/09 01:42:08;;;;;;;15.97;14.67;;;-5.10;99.90;;;;;;5094954;28;20600;-63
2024/01/09 01:44:35;;;;;;;16.20;14.80;;;-5.10;99.90;;;;;;5094706;28;20185;-63
2024/01/09 01:47:00;;;;;;;15.70;14.30;;;-5.10;99.90;;;;;;5094961;28;20204;-63
2024/01/09 01:49:26;;;;;;;18.43;13.87;;;-5.10;99.90;;;;;;5094907;28;20234;-63
2024/01/09 01:51:52;;;;;;;15.20;13.90;;;-5.10;99.90;;;;;;5094576;28;20224;-63
2024/01/09 01:54:19;;;;;;;16.10;14.47;;;-5.10;99.90;;;;;;5094691;28;20641;-63
2024/01/09 01:56:46;;;;;;;14.53;13.30;;;-5.10;99.90;;;;;;5094270;28;20594;-63
2024/01/09 01:59:15;;;;;;;15.30;13.60;;;-5.20;99.90;;;;;;5076487;28;20226;-63
2024/01/09 02:01:43;;;;;;;15.20;13.70;;;-5.20;99.90;;;;;;5094288;28;20262;-63
2024/01/09 02:04:10;;;;;;;15.50;14.03;;;-5.20;99.90;;;;;;5094651;28;20195;-64
2024/01/09 02:06:37;;;;;;;15.37;13.80;;;-5.10;99.90;;;;;;5094455;28;20284;-63
2024/01/09 02:09:04;;;;;;;15.60;14.13;;;-5.20;99.90;;;;;;5094722;28;20173;-63
2024/01/09 02:11:30;;;;;;;15.13;13.83;;;-5.20;99.90;;;;;;5094401;28;20662;-63
2024/01/09 02:13:56;;;;;;;14.83;13.53;;;-5.20;99.90;;;;;;5094597;28;20201;-63
2024/01/09 02:16:22;;;;;;;16.23;14.20;;;-5.20;99.90;;;;;;5094081;28;20232;-63
2024/01/09 02:18:48;;;;;;;15.13;14.03;;;-5.20;99.90;;;;;;5094031;28;20185;-63
2024/01/09 02:21:13;;;;;;;15.33;14.00;;;-5.10;99.90;;;;;;5094217;28;20191;-63
2024/01/09 02:23:39;;;;;;;15.27;14.00;;;-5.20;99.90;;;;;;5094739;28;20185;-64
2024/01/09 02:26:06;;;;;;;18.33;14.40;;;-5.20;99.90;;;;;;5094222;28;20189;-63
2024/01/09 02:28:50;;;;;;;15.23;14.00;;;-5.20;99.90;;;;;;5094383;28;20272;-63
2024/01/09 02:31:16;;;;;;;14.80;13.50;;;-5.20;99.90;;;;;;5093907;28;20165;-63
2024/01/09 02:33:44;;;;;;;14.57;13.17;;;-5.20;99.90;;;;;;5094509;28;20235;-63
2024/01/09 02:36:09;;;;;;;15.20;13.90;;;-5.30;99.90;;;;;;5094419;28;20200;-64
2024/01/09 02:38:35;;;;;;;15.37;13.90;;;-5.30;99.90;;;;;;5093323;28;20706;-63
2024/01/09 02:41:01;;;;;;;14.70;13.43;;;-5.30;99.90;;;;;;5094765;28;20169;-63
2024/01/09 02:43:27;;;;;;;16.10;13.83;;;-5.30;99.90;;;;;;5094643;28;20252;-63
2024/01/09 02:45:52;;;;;;;16.13;14.53;;;-5.30;99.90;;;;;;5092558;28;20338;-63
2024/01/09 02:48:19;;;;;;;15.63;14.10;;;-5.30;99.90;;;;;;5093926;28;20386;-63
2024/01/09 02:50:45;;;;;;;15.17;13.80;;;-5.30;99.90;;;;;;5094115;28;20832;-63
2024/01/09 02:53:10;;;;;;;15.73;14.37;;;-5.30;99.90;;;;;;5094174;28;20211;-63
2024/01/09 02:55:36;;;;;;;15.03;13.63;;;-5.30;99.90;;;;;;5093775;28;20208;-63
2024/01/09 02:58:02;;;;;;;15.67;14.33;;;-5.30;99.90;;;;;;5093615;28;20229;-63
2024/01/09 03:00:28;;;;;;;15.03;13.73;;;-5.40;99.90;;;;;;5093884;28;20264;-64
2024/01/09 03:02:54;;;;;;;14.33;13.13;;;-5.40;99.90;;;;;;5093898;28;20257;-63
2024/01/09 03:05:19;;;;;;;15.43;13.63;;;-5.30;99.90;;;;;;5093873;28;20267;-63
2024/01/09 03:07:45;;;;;;;15.63;14.17;;;-5.40;99.90;;;;;;5093814;28;20300;-63
2024/01/09 03:10:11;;;;;;;15.47;14.03;;;-5.40;99.90;;;;;;5093800;28;20185;-63
2024/01/09 03:12:37;;;;;;;15.77;14.27;;;-5.40;99.90;;;;;;5093926;28;20554;-63
2024/01/09 03:15:03;;;;;;;14.23;13.03;;;-5.30;99.90;;;;;;5092993;28;20678;-64
2024/01/09 03:17:29;;;;;;;15.43;14.03;;;-5.30;99.90;;;;;;5092928;28;20735;-63
2024/01/09 03:19:55;;;;;;;15.37;14.10;;;-5.30;99.90;;;;;;5093674;28;20193;-64
2024/01/09 03:22:20;;;;;;;16.30;14.67;;;-5.40;99.90;;;;;;5093381;28;20185;-64
2024/01/09 03:24:46;;;;;;;15.40;13.97;;;-5.40;99.90;;;;;;5093759;28;20212;-63
2024/01/09 03:27:12;;;;;;;16.23;14.80;;;-5.40;99.90;;;;;;5093454;28;20205;-63
2024/01/09 03:29:39;;;;;;;16.50;14.07;;;-5.40;99.90;;;;;;5073875;28;20186;-63
2024/01/09 03:32:05;;;;;;;15.37;13.87;;;-5.40;99.90;;;;;;5073276;28;20182;-63
2024/01/09 03:34:31;;;;;;;15.97;14.57;;;-5.40;99.90;;;;;;5076266;28;20209;-63
2024/01/09 03:36:57;;;;;;;16.00;14.47;;;-5.40;99.90;;;;;;5076892;28;20202;-63
2024/01/09 03:39:23;;;;;;;15.27;13.87;;;-5.40;99.90;;;;;;5076773;28;20600;-63
2024/01/09 03:41:48;;;;;;;15.30;14.10;;;-5.50;99.90;;;;;;5059060;28;20186;-64
2024/01/09 03:44:15;;;;;;;16.07;14.57;;;-5.40;99.90;;;;;;5058436;28;20186;-63
2024/01/09 03:46:41;;;;;;;16.10;14.70;;;-5.40;99.90;;;;;;5076066;28;20216;-63
2024/01/09 03:49:07;;;;;;;16.47;14.97;;;-5.40;99.90;;;;;;5077305;28;20639;-63
2024/01/09 03:51:32;;;;;;;16.77;15.33;;;-5.50;99.90;;;;;;5076312;28;20193;-64
2024/01/09 03:53:58;;;;;;;16.77;15.07;;;-5.50;99.90;;;;;;5076354;28;20177;-63
2024/01/09 03:56:24;;;;;;;15.83;14.43;;;-5.50;99.90;;;;;;5076235;28;20224;-63
2024/01/09 03:58:52;;;;;;;15.50;14.27;;;-5.50;99.90;;;;;;5072475;28;20572;-63
2024/01/09 04:01:18;;;;;;;15.47;14.27;;;-5.50;99.90;;;;;;5096622;28;20205;-63
2024/01/09 04:03:45;;;;;;;16.40;14.80;;;-5.50;99.90;;;;;;5096904;28;20173;-64
2024/01/09 04:06:12;;;;;;;14.60;13.33;;;-5.50;99.90;;;;;;5096862;28;20189;-63
2024/01/09 04:08:38;;;;;;;15.90;14.40;;;-5.60;99.90;;;;;;5096794;28;20685;-63
2024/01/09 04:11:04;;;;;;;16.63;15.13;;;-5.60;99.90;;;;;;5096098;28;20234;-63
2024/01/09 04:13:30;;;;;;;15.70;14.40;;;-5.60;99.90;;;;;;5096517;28;20715;-63
2024/01/09 04:15:56;;;;;;;16.43;15.03;;;-5.60;99.90;;;;;;5095941;28;20228;-64
2024/01/09 04:18:22;;;;;;;17.13;15.53;;;-5.70;99.90;;;;;;5096458;28;20193;-63
2024/01/09 04:20:48;;;;;;;16.47;14.87;;;-5.60;99.90;;;;;;5095371;28;20239;-63
2024/01/09 04:23:14;;;;;;;16.43;14.93;;;-5.60;99.90;;;;;;5096878;28;20188;-62
2024/01/09 04:25:39;;;;;;;16.47;14.97;;;-5.60;99.90;;;;;;5096525;28;20185;-64
2024/01/09 04:28:05;;;;;;;15.00;13.80;;;-5.60;99.90;;;;;;5096247;28;20323;-63
2024/01/09 04:30:31;;;;;;;15.67;14.27;;;-5.70;99.90;;;;;;5096133;28;20223;-63
2024/01/09 04:32:57;;;;;;;15.37;14.07;;;-5.70;99.90;;;;;;5096272;28;20632;-63
2024/01/09 04:35:23;;;;;;;17.43;15.63;;;-5.60;99.90;;;;;;5096632;28;20296;-63
2024/01/09 04:37:48;;;;;;;16.60;14.93;;;-5.60;99.90;;;;;;5095651;28;20193;-64
2024/01/09 04:40:14;;;;;;;16.07;14.67;;;-5.60;99.90;;;;;;5096201;28;20181;-63
2024/01/09 04:42:40;;;;;;;15.73;14.43;;;-5.60;99.90;;;;;;5096798;28;20182;-63
2024/01/09 04:45:06;;;;;;;16.73;15.03;;;-5.60;99.90;;;;;;5096217;28;20226;-63
2024/01/09 04:47:32;;;;;;;16.80;15.27;;;-5.70;99.90;;;;;;5096018;28;20205;-64
2024/01/09 04:49:57;;;;;;;17.17;15.47;;;-5.70;99.90;;;;;;5095996;28;20263;-63
2024/01/09 04:52:23;;;;;;;16.17;14.93;;;-5.60;99.90;;;;;;5095988;28;20185;-63
2024/01/09 04:54:49;;;;;;;16.23;14.63;;;-5.70;99.90;;;;;;5095910;28;20254;-63
2024/01/09 04:57:15;;;;;;;15.97;14.53;;;-5.70;99.90;;;;;;5095847;28;20693;-63
2024/01/09 04:59:42;;;;;;;15.13;13.70;;;-5.70;99.90;;;;;;5096265;28;20196;-63
2024/01/09 05:02:08;;;;;;;15.77;14.37;;;-5.70;99.90;;;;;;5095623;28;20317;-63
2024/01/09 05:04:34;;;;;;;15.47;14.10;;;-5.70;99.90;;;;;;5096080;28;20555;-63
2024/01/09 05:07:00;;;;;;;17.90;16.07;;;-5.70;99.90;;;;;;5095619;28;20197;-63
2024/01/09 05:09:27;;;;;;;16.83;15.13;;;-5.70;99.90;;;;;;5095441;28;20169;-64
2024/01/09 05:11:53;;;;;;;15.93;14.60;;;-5.70;99.90;;;;;;5095672;28;20669;-64
2024/01/09 05:14:19;;;;;;;16.50;14.37;;;-5.70;99.90;;;;;;5095089;28;20208;-64
2024/01/09 05:16:44;;;;;;;17.07;15.57;;;-5.70;99.90;;;;;;5094651;28;20267;-63
2024/01/09 05:19:10;;;;;;;15.70;14.30;;;-5.70;99.90;;;;;;5095364;28;20545;-63
2024/01/09 05:21:36;;;;;;;16.10;14.57;;;-5.70;99.90;;;;;;5096186;28;20193;-63
2024/01/09 05:24:02;;;;;;;16.00;14.40;;;-5.80;99.90;;;;;;5095594;28;20225;-63
2024/01/09 05:26:28;;;;;;;15.77;14.57;;;-5.70;99.90;;;;;;5095215;28;20662;-63
2024/01/09 05:28:53;;;;;;;16.20;14.70;;;-5.70;99.90;;;;;;5095456;28;20189;-63
2024/01/09 05:31:20;;;;;;;17.27;15.53;;;-5.70;99.90;;;;;;5094836;28;20713;-63
2024/01/09 05:33:47;;;;;;;16.70;15.13;;;-5.70;99.90;;;;;;5095165;28;20187;-63
2024/01/09 05:36:18;;;;;;;17.20;15.57;;;-5.70;99.90;;;;;;5094958;28;20204;-63
2024/01/09 05:38:43;;;;;;;16.03;14.47;;;-5.70;99.90;;;;;;5094998;28;20158;-64
2024/01/09 05:41:17;;;;;;;18.80;15.17;;;-5.80;99.90;;;;;;5094913;28;20264;-63
2024/01/09 05:43:43;;;;;;;17.40;15.80;;;-5.80;99.90;;;;;;5076858;28;20169;-63
2024/01/09 05:46:08;;;;;;;17.57;15.90;;;-5.80;99.90;;;;;;5094653;28;20192;-63
2024/01/09 05:48:34;;;;;;;17.77;16.00;;;-5.80;99.90;;;;;;5094753;28;20215;-63
2024/01/09 05:51:00;;;;;;;16.80;15.37;;;-5.80;99.90;;;;;;5094749;28;20250;-63
2024/01/09 05:53:26;;;;;;;17.60;15.83;;;-5.90;99.90;;;;;;5094618;28;20189;-63
2024/01/09 05:55:51;;;;;;;17.37;15.83;;;-5.80;99.90;;;;;;5094304;28;20217;-63
2024/01/09 05:58:17;;;;;;;18.07;16.20;;;-5.80;99.90;;;;;;5093804;28;20243;-63
2024/01/09 06:00:43;;;;;;;17.50;15.80;;;-5.90;99.90;;;;;;5094572;28;20174;-64
2024/01/09 06:03:09;;;;;;;16.60;14.97;;;-5.90;99.90;;;;;;5094474;28;20158;-63
2024/01/09 06:05:34;;;;;;;16.40;14.73;;;-5.90;99.90;;;;;;5094959;28;20185;-63
2024/01/09 06:08:00;;;;;;;15.77;14.47;;;-5.90;99.90;;;;;;5094741;28;20213;-64
2024/01/09 06:10:26;;;;;;;17.97;16.30;;;-5.90;99.90;;;;;;5094950;28;20187;-63
2024/01/09 06:12:52;;;;;;;17.40;16.00;;;-5.90;99.90;;;;;;5094434;28;20193;-63
2024/01/09 06:15:18;;;;;;;16.27;14.77;;;-5.90;99.90;;;;;;5094593;28;20216;-63
2024/01/09 06:17:43;;;;;;;16.53;14.87;;;-5.90;99.90;;;;;;5094116;28;20197;-63
2024/01/09 06:20:09;;;;;;;17.63;16.03;;;-5.90;99.90;;;;;;5094388;28;20174;-63
2024/01/09 06:22:35;;;;;;;17.17;15.47;;;-6.00;99.90;;;;;;5094652;28;20212;-63
2024/01/09 06:25:01;;;;;;;16.60;15.00;;;-5.90;99.90;;;;;;5094042;28;20633;-64
2024/01/09 06:27:27;;;;;;;16.60;14.83;;;-5.90;99.90;;;;;;5093725;28;20697;-63
2024/01/09 06:29:52;;;;;;;16.73;15.23;;;-5.90;99.90;;;;;;5093704;28;20184;-63
2024/01/09 06:32:18;;;;;;;17.50;15.83;;;-6.00;99.90;;;;;;5093538;28;20181;-64
2024/01/09 06:34:44;;;;;;;17.30;15.80;;;-5.90;99.90;;;;;;5094253;28;20225;-63
2024/01/09 06:37:10;;;;;;;17.13;15.67;;;-5.90;99.90;;;;;;5093461;28;20262;-64
2024/01/09 06:39:36;;;;;;;16.10;14.73;;;-5.90;99.90;;;;;;5094700;28;20181;-63
2024/01/09 06:42:02;;;;;;;17.17;15.57;;;-5.90;99.90;;;;;;5094365;28;20185;-63
2024/01/09 06:44:28;;;;;;;15.40;14.00;;;-5.90;99.90;;;;;;5094149;28;20242;-64
2024/01/09 06:46:53;;;;;;;15.97;14.57;;;-6.00;99.90;;;;;;5093736;28;20254;-63
2024/01/09 06:49:19;;;;;;;17.30;15.47;;;-6.00;99.90;;;;;;5094653;28;20303;-63
2024/01/09 06:51:45;;;;;;;15.93;14.53;;;-6.00;99.90;;;;;;5092869;28;20223;-64
2024/01/09 06:54:11;;;;;;;17.50;15.83;;;-6.00;99.90;;;;;;5094556;28;20182;-63
2024/01/09 06:56:41;;;;;;;16.67;15.17;;;-5.90;99.90;;;;;;5093597;28;20213;-63
2024/01/09 06:59:06;;;;;;;17.13;15.43;;;-6.00;99.90;;;;;;5093845;28;20181;-63
2024/01/09 07:01:35;;;;;;;17.00;15.47;;;-6.00;99.90;;;;;;5093722;28;20188;-64
2024/01/09 07:04:01;;;;;;;16.13;14.67;;;-6.00;99.90;;;;;;5075835;28;20563;-64
2024/01/09 07:06:27;;;;;;;16.57;14.87;;;-6.00;99.90;;;;;;5094767;28;20201;-64
2024/01/09 07:08:52;;;;;;;17.60;15.93;;;-6.00;99.90;;;;;;5097974;28;20664;-64
2024/01/09 07:11:18;;;;;;;16.43;14.90;;;-6.00;99.90;;;;;;5097873;28;20181;-64
2024/01/09 07:13:44;;;;;;;17.40;15.70;;;-6.00;99.90;;;;;;5097912;28;20268;-63
2024/01/09 07:16:10;;;;;;;16.30;15.00;;;-6.00;99.90;;;;;;5096831;28;20603;-64
2024/01/09 07:18:36;;;;;;;16.33;14.93;;;-6.10;99.90;;;;;;5097361;28;20630;-64
2024/01/09 07:21:02;;;;;;;17.80;15.93;;;-6.00;99.90;;;;;;5097706;28;20173;-63
2024/01/09 07:23:28;;;;;;;16.00;14.60;;;-6.00;99.90;;;;;;5097609;28;20188;-64
2024/01/09 07:25:54;;;;;;;17.63;16.03;;;-6.00;99.90;;;;;;5097382;28;20189;-64
2024/01/09 07:28:20;;;;;;;16.73;15.07;;;-6.00;99.90;;;;;;5097642;28;20227;-64
2024/01/09 07:30:46;;;;;;;16.80;15.37;;;-6.00;99.90;;;;;;5097674;28;20204;-64
2024/01/09 07:33:11;;;;;;;16.37;14.87;;;-6.00;99.90;;;;;;5096190;28;20272;-64
2024/01/09 07:35:37;;;;;;;18.27;16.53;;;-6.00;99.90;;;;;;5079196;28;20213;-64
2024/01/09 07:38:04;;;;;;;16.17;14.77;;;-6.00;99.90;;;;;;5097475;28;20200;-64
2024/01/09 07:40:29;;;;;;;18.07;15.97;;;-6.10;99.90;;;;;;5097357;28;20181;-64
2024/01/09 07:42:58;;;;;;;17.63;16.03;;;-6.00;1.00;;;;;;5097241;28;20192;-64
2024/01/09 07:45:28;;;;;;;16.83;15.27;;;-6.10;1.00;;;;;;5095862;28;20193;-63
2024/01/09 07:47:55;;;;;;;16.50;15.20;;;-6.10;1.00;;;;;;5096895;28;20259;-64
2024/01/09 07:50:21;;;;;;;19.00;17.23;;;-6.00;1.00;;;;;;5097838;28;20208;-64
2024/01/09 07:52:48;;;;;;;16.83;15.13;;;-6.00;1.00;;;;;;5097263;28;20567;-64
2024/01/09 07:55:14;;;;;;;18.87;17.00;;;-6.10;1.00;;;;;;5078865;28;20769;-63
2024/01/09 07:57:40;;;;;;;18.10;16.13;;;-6.10;1.00;;;;;;5078281;28;20252;-63
2024/01/09 08:00:07;;;;;;;18.53;15.30;;;-6.00;1.00;;;;;;5096824;28;20730;-63
2024/01/09 08:02:32;;;;;;;18.10;16.27;;;-6.00;1.00;;;;;;5096601;28;20189;-63
2024/01/09 08:04:58;;;;;;;19.47;16.40;;;-6.00;1.00;;;;;;5095647;28;20272;-63
2024/01/09 08:07:24;;;;;;;18.00;16.47;;;-6.00;1.00;;;;;;5096735;28;20205;-64
2024/01/09 08:09:50;;;;;;;18.30;16.50;;;-5.90;1.00;;;;;;5078664;28;20181;-64
2024/01/09 08:12:16;;;;;;;19.53;16.87;;;-5.90;1.00;;;;;;5096788;28;20189;-63
2024/01/09 08:14:42;;;;;;;17.57;15.97;;;-5.90;1.00;;;;;;5096643;28;20269;-63
2024/01/09 08:17:08;;;;;;;18.40;16.43;;;-6.00;1.00;;;;;;5096148;28;20296;-63
2024/01/09 08:19:34;;;;;;;20.97;17.07;;;-6.00;99.90;;;;;;5095786;28;20181;-64
2024/01/09 08:21:59;;;;;;;18.40;16.67;;;-6.00;1.00;;;;;;5095775;28;20262;-64
2024/01/09 08:24:25;;;;;;;18.47;16.70;;;-5.90;1.00;;;;;;5096284;28;20181;-64
2024/01/09 08:26:52;;;;;;;22.33;16.77;;;-5.90;99.90;;;;;;5094946;28;20266;-64
2024/01/09 08:29:18;;;;;;;17.60;15.80;;;-6.00;1.00;;;;;;5096429;28;20185;-63
2024/01/09 08:31:45;;;;;;;18.57;16.67;;;-5.90;99.90;;;;;;5094777;28;20185;-63
2024/01/09 08:34:12;;;;;;;18.17;16.50;;;-5.90;1.00;;;;;;5096083;28;20204;-64
2024/01/09 08:36:38;;;;;;;17.20;15.60;;;-5.90;99.90;;;;;;5095685;28;20205;-64
2024/01/09 08:39:04;;;;;;;17.77;16.17;;;-5.80;1.00;;;;;;5095531;28;20181;-64
2024/01/09 08:41:30;;;;;;;19.17;17.40;;;-5.80;99.90;;;;;;5096080;28;20634;-64
2024/01/09 08:43:56;;;;;;;16.87;15.47;;;-5.70;99.90;;;;;;5094546;28;20223;-64
2024/01/09 08:46:21;;;;;;;19.43;17.50;;;-5.70;99.90;;;;;;5095716;28;20258;-63
2024/01/09 08:48:47;;;;;;;17.47;16.00;;;-5.70;99.90;;;;;;5096192;28;20185;-64
2024/01/09 08:51:13;;;;;;;18.70;16.60;;;-5.70;99.90;;;;;;5096178;28;20181;-64
2024/01/09 08:53:39;;;;;;;17.87;16.27;;;-5.60;99.90;;;;;;5095525;28;20192;-64
2024/01/09 08:56:05;;;;;;;16.97;15.37;;;-5.50;99.90;;;;;;5096283;28;20217;-63
2024/01/09 08:58:31;;;;;;;18.80;16.90;;;-5.50;99.90;;;;;;5095674;28;20264;-64
2024/01/09 09:00:57;;;;;;;19.53;16.47;;;-5.40;99.90;;;;;;5095681;28;20232;-64
2024/01/09 09:03:22;;;;;;;17.23;15.67;;;-5.40;99.90;;;;;;5095592;28;20211;-64
2024/01/09 09:05:48;;;;;;;18.53;16.67;;;-5.30;99.90;;;;;;5095626;28;20256;-63
2024/01/09 09:08:14;;;;;;;18.73;16.83;;;-5.30;99.90;;;;;;5095936;28;20201;-64
2024/01/09 09:10:39;;;;;;;18.03;16.47;;;-5.20;99.90;;;;;;5095747;28;20250;-64
2024/01/09 09:13:06;;;;;;;18.33;16.53;;;-5.20;99.90;;;;;;5095784;28;20228;-64
2024/01/09 09:15:32;;;;;;;18.83;16.87;;;-5.20;99.90;;;;;;5094912;28;20204;-63
2024/01/09 09:17:58;;;;;;;19.13;17.33;;;-5.10;99.90;;;;;;5094670;28;20204;-64
2024/01/09 09:20:24;;;;;;;18.97;17.00;;;-5.10;99.90;;;;;;5095397;28;20672;-64
2024/01/09 09:22:50;;;;;;;19.03;17.13;;;-5.00;62.20;;;;;;5095796;28;20238;-64
2024/01/09 09:25:15;;;;;;;17.87;16.17;;;-4.90;78.20;;;;;;5095483;28;20189;-64
2024/01/09 09:27:42;;;;;;;17.80;15.97;;;-4.90;1.00;;;;;;5095205;28;20220;-64
2024/01/09 09:30:10;;;;;;;17.13;15.67;;;-4.80;99.90;;;;;;5075939;28;20185;-64
2024/01/09 09:32:36;;;;;;;17.63;15.90;;;-4.80;1.00;;;;;;5094669;28;20783;-64
2024/01/09 09:35:03;;;;;;;18.60;16.80;;;-4.80;1.00;;;;;;5094894;28;20678;-64
2024/01/09 09:37:28;;;;;;;17.23;15.27;;;-4.70;1.00;;;;;;5094851;28;20197;-64
2024/01/09 09:39:54;;;;;;;20.87;17.77;;;-4.70;1.00;;;;;;5094735;28;20182;-64
2024/01/09 09:42:20;;;;;;;19.43;17.57;;;-4.60;84.30;;;;;;5094944;28;20263;-64
2024/01/09 09:44:52;;;;;;;18.50;16.30;;;-4.60;1.00;;;;;;5094648;28;20181;-64
2024/01/09 09:47:21;;;;;;;21.90;17.73;;;-4.50;36.90;;;;;;5094509;28;20211;-64
2024/01/09 09:49:48;;;;;;;18.73;16.90;;;-4.40;1.00;;;;;;5094737;28;20197;-64
2024/01/09 09:52:22;;;;;;;17.90;16.07;;;-4.30;1.00;;;;;;5132924;27;20592;-63
2024/01/09 09:54:49;;;;;;;19.53;17.30;;;-4.20;1.00;;;;;;5132362;27;20258;-64
2024/01/09 09:57:16;;;;;;;16.90;15.30;;;-4.10;1.00;;;;;;5130344;28;20192;-63
2024/01/09 09:59:42;;;;;;;18.10;16.33;;;-4.00;1.00;;;;;;5111712;28;20169;-63
2024/01/09 10:02:16;;;;;;;22.33;18.83;;;-3.80;1.00;;;;;;5109440;28;20602;-63
2024/01/09 10:04:51;;;;;;;18.03;16.27;;;-3.80;99.90;;;;;;5111196;28;20173;-63
2024/01/09 10:07:20;;;;;;;18.53;15.70;;;-3.70;99.90;;;;;;5111388;28;20192;-63
2024/01/09 10:09:52;;;;;;;16.93;15.27;;;-3.60;99.90;;;;;;5111251;28;20659;-63
2024/01/09 10:12:22;;;;;;;17.03;15.40;;;-3.50;99.90;;;;;;5111771;28;20161;-63
2024/01/09 10:15:11;;;;;;;15.67;14.37;;;-3.40;99.90;;;;;;5111191;28;20148;-63
2024/01/09 10:17:41;;;;;;;15.17;13.70;;;-3.30;99.90;;;;;;5110449;28;20180;-63
2024/01/09 10:20:08;;;;;;;15.60;14.07;;;-3.20;99.90;;;;;;5111193;28;20203;-63
2024/01/09 10:22:35;;;;;;;16.43;15.03;;;-3.10;1.00;;;;;;5111347;28;20169;-63
2024/01/09 10:25:10;;;;;;;15.70;14.40;;;-3.00;50.90;;;;;;5111019;28;20197;-63
2024/01/09 10:27:37;;;;;;;15.57;14.17;;;-2.90;5.00;;;;;;5110950;28;20188;-63
2024/01/09 10:30:10;;;;;;;16.20;14.27;;;-2.90;32.70;;;;;;5111036;28;20169;-63
2024/01/09 10:32:38;;;;;;;15.63;14.33;;;-2.70;1.00;;;;;;5110598;28;20153;-63
2024/01/09 10:35:04;;;;;;;16.53;14.80;;;-2.60;47.50;;;;;;5110986;28;20157;-64
2024/01/09 10:37:34;;;;;;;15.43;14.23;;;-2.50;1.00;;;;;;5110751;28;20540;-63
2024/01/09 10:40:00;;;;;;;14.93;13.63;;;-2.40;1.00;;;;;;5109829;28;20199;-63
2024/01/09 10:42:27;;;;;;;16.10;14.67;;;-2.30;99.90;;;;;;5109187;28;20160;-65
2024/01/09 10:44:57;;;;;;;21.60;16.90;;;-2.20;99.90;;;;;;5109627;28;20491;-64
2024/01/09 10:47:24;;;;;;;18.10;16.17;;;-2.10;99.90;;;;;;5109531;28;20180;-63
2024/01/09 10:49:51;;;;;;;16.57;14.90;;;-2.10;1.00;;;;;;5109676;28;20188;-63
2024/01/09 10:52:17;;;;;;;16.40;14.90;;;-2.00;1.00;;;;;;5110420;28;20673;-63
2024/01/09 10:54:47;;;;;;;18.60;16.13;;;-1.90;1.00;;;;;;5111107;28;20184;-63
2024/01/09 10:57:14;;;;;;;21.77;18.07;;;-1.80;1.00;;;;;;5109853;28;20701;-64
2024/01/09 10:59:42;;;;;;;15.87;14.33;;;-1.60;1.00;;;;;;5110751;28;20497;-63
2024/01/09 11:02:25;;;;;;;16.20;14.50;;;-1.50;1.00;;;;;;5105981;28;20158;-64
2024/01/09 11:04:51;;;;;;;14.77;13.53;;;-1.30;99.90;;;;;;5095715;28;20166;-64
2024/01/09 11:07:17;;;;;;;14.97;13.57;;;-1.10;99.90;;;;;;5097106;28;20562;-64
2024/01/09 11:09:47;;;;;;;15.50;14.00;;;-1.00;1.00;;;;;;5096811;28;20226;-64
2024/01/09 11:12:28;;;;;;;15.47;14.07;;;-0.90;99.90;;;;;;5096218;28;20221;-64
2024/01/09 11:15:03;;;;;;;15.43;13.80;;;-0.80;99.90;;;;;;5096552;28;20153;-64
2024/01/09 11:17:30;;;;;;;15.30;13.90;;;-0.60;1.00;;;;;;5095308;28;20719;-64
2024/01/09 11:19:56;;;;;;;15.40;13.83;;;-0.50;99.90;;;;;;5096601;28;20630;-63
2024/01/09 11:22:22;;;;;;;15.00;13.60;;;-0.50;1.00;;;;;;5095959;28;20212;-63
2024/01/09 11:24:55;;;;;;;14.30;13.00;;;-0.40;99.90;;;;;;5096837;28;20242;-63
2024/01/09 11:27:21;;;;;;;15.07;13.63;;;-0.30;1.00;;;;;;5096604;28;20201;-64
2024/01/09 11:29:49;;;;;;;15.20;13.70;;;-0.20;20.00;;;;;;5096447;28;20630;-64
2024/01/09 11:32:16;;;;;;;18.40;14.40;;;0.00;1.00;;;;;;5096339;28;20229;-64
2024/01/09 11:35:06;;;;;;;14.53;13.23;;;0.10;1.00;;;;;;5094825;28;20177;-63
2024/01/09 11:37:32;;;;;;;14.93;13.73;;;0.20;99.90;;;;;;5096761;28;20597;-64
2024/01/09 11:39:59;;;;;;;14.67;12.93;;;0.20;99.90;;;;;;5095930;28;20208;-63
2024/01/09 11:42:25;;;;;;;13.97;12.87;;;0.50;1.00;;;;;;5095773;28;20180;-63
2024/01/09 11:44:52;;;;;;;15.13;13.73;;;0.70;99.90;;;;;;5096663;28;20161;-64
2024/01/09 11:47:18;;;;;;;13.97;12.70;;;0.60;1.00;;;;;;5095927;28;20238;-63
2024/01/09 11:49:44;;;;;;;15.13;13.73;;;0.60;1.00;;;;;;5096666;28;20177;-63
2024/01/09 11:52:10;;;;;;;14.40;13.10;;;0.60;1.00;;;;;;5095683;28;20218;-64
2024/01/09 11:54:37;;;;;;;15.07;13.67;;;0.70;1.00;;;;;;5096316;28;20164;-63
2024/01/09 11:57:04;;;;;;;14.27;13.00;;;0.60;99.90;;;;;;5095110;28;20261;-64
2024/01/09 11:59:33;;;;;;;14.67;13.23;;;0.70;99.90;;;;;;5095644;28;20245;-64
2024/01/09 12:01:59;;;;;;;14.33;13.13;;;0.90;99.90;;;;;;5095832;28;20161;-63
2024/01/09 12:04:24;;;;;;;14.67;13.33;;;0.90;1.00;;;;;;5095509;28;20584;-63
2024/01/09 12:06:51;;;;;;;13.90;12.60;;;0.70;99.90;;;;;;5095541;28;20290;-64
2024/01/09 12:09:17;;;;;;;13.53;12.43;;;0.80;99.90;;;;;;5093843;28;20209;-62
2024/01/09 12:11:43;;;;;;;13.93;12.67;;;0.90;83.50;;;;;;5094982;28;20201;-62
2024/01/09 12:14:09;;;;;;;13.53;12.23;;;1.00;1.00;;;;;;5094193;28;20230;-62
2024/01/09 12:16:34;;;;;;;13.30;12.23;;;1.00;1.00;;;;;;5095017;28;20204;-62
2024/01/09 12:19:01;;;;;;;13.80;12.53;;;0.90;1.00;;;;;;5094975;28;20177;-62
2024/01/09 12:21:31;;;;;;;17.77;12.20;;;1.00;1.00;;;;;;5095201;28;20254;-62
2024/01/09 12:24:04;;;;;;;12.00;11.00;;;1.20;99.90;;;;;;5095603;28;20157;-62
2024/01/09 12:26:31;;;;;;;12.67;11.53;;;1.20;1.00;;;;;;5095119;28;20305;-62
2024/01/09 12:28:58;;;;;;;12.50;11.30;;;1.10;1.00;;;;;;5095015;28;20177;-62